createdAt,value
2022-09-11T00:02:04.640Z,2.00
2022-09-11T00:04:33.332Z,1.98
2022-09-11T00:07:00.159Z,1.75
2022-09-11T00:09:26.975Z,2.15
2022-09-11T00:11:53.450Z,1.92
2022-09-11T00:14:20.240Z,2.25
2022-09-11T00:16:47.231Z,1.88
2022-09-11T00:19:16.102Z,2.03
2022-09-11T00:21:43.123Z,2.20
2022-09-11T00:24:10.258Z,2.58
2022-09-11T00:26:37.115Z,1.63
2022-09-11T00:29:04.375Z,2.03
2022-09-11T00:31:32.514Z,1.77
2022-09-11T00:33:59.522Z,1.60
2022-09-11T00:36:27.724Z,1.98
2022-09-11T00:38:54.539Z,2.05
2022-09-11T00:41:24.488Z,2.15
2022-09-11T00:43:51.098Z,1.58
2022-09-11T00:46:17.781Z,1.95
2022-09-11T00:48:49.740Z,1.73
2022-09-11T00:51:24.846Z,1.88
2022-09-11T00:53:53.122Z,2.10
2022-09-11T00:56:20.468Z,1.70
2022-09-11T00:58:48.637Z,1.98
2022-09-11T01:01:15.398Z,2.92
2022-09-11T01:03:42.613Z,1.90
2022-09-11T01:06:10.771Z,1.92
2022-09-11T01:08:38.494Z,2.20
2022-09-11T01:11:13.607Z,1.70
2022-09-11T01:13:43.270Z,2.33
2022-09-11T01:16:16.169Z,1.98
2022-09-11T01:19:03.692Z,1.60
2022-09-11T01:21:52.465Z,2.10
2022-09-11T01:24:31.552Z,1.45
2022-09-11T01:27:17.071Z,1.80
2022-09-11T01:29:56.623Z,1.80
2022-09-11T01:32:25.634Z,1.88
2022-09-11T01:35:03.306Z,1.98
2022-09-11T01:37:36.249Z,1.55
2022-09-11T01:40:05.457Z,1.20
2022-09-11T01:42:33.203Z,1.88
2022-09-11T01:45:00.012Z,1.58
2022-09-11T01:47:27.647Z,1.30
2022-09-11T01:49:59.247Z,1.52
2022-09-11T01:52:29.057Z,1.90
2022-09-11T01:54:59.898Z,1.33
2022-09-11T01:57:26.372Z,1.67
2022-09-11T01:59:55.907Z,1.67
2022-09-11T02:02:25.918Z,1.23
2022-09-11T02:04:58.975Z,1.10
2022-09-11T02:07:29.212Z,1.43
2022-09-11T02:10:17.342Z,1.35
2022-09-11T02:12:46.407Z,1.10
2022-09-11T02:15:15.852Z,1.20
2022-09-11T02:17:46.390Z,1.35
2022-09-11T02:20:12.963Z,1.20
2022-09-11T02:22:40.444Z,1.35
2022-09-11T02:25:07.197Z,1.35
2022-09-11T02:27:33.863Z,0.95
2022-09-11T02:30:00.894Z,1.10
2022-09-11T02:32:27.735Z,1.00
2022-09-11T02:34:55.564Z,1.05
2022-09-11T02:37:25.014Z,1.10
2022-09-11T02:39:54.581Z,1.15
2022-09-11T02:42:27.798Z,1.10
2022-09-11T02:45:00.994Z,1.00
2022-09-11T02:47:31.185Z,1.05
2022-09-11T02:50:00.814Z,0.95
2022-09-11T02:52:36.095Z,0.85
2022-09-11T02:55:06.047Z,1.25
2022-09-11T02:57:34.878Z,1.00
2022-09-11T03:00:02.527Z,0.90
2022-09-11T03:02:30.115Z,1.00
2022-09-11T03:04:56.987Z,1.40
2022-09-11T03:07:25.381Z,1.15
2022-09-11T03:09:52.525Z,0.80
2022-09-11T03:12:19.075Z,1.10
2022-09-11T03:14:45.571Z,1.10
2022-09-11T03:17:12.022Z,0.93
2022-09-11T03:19:38.495Z,1.00
2022-09-11T03:22:05.059Z,1.20
2022-09-11T03:24:31.504Z,1.00
2022-09-11T03:26:57.996Z,1.25
2022-09-11T03:29:24.492Z,0.90
2022-09-11T03:31:51.550Z,1.25
2022-09-11T03:34:18.212Z,1.10
2022-09-11T03:36:44.690Z,1.00
2022-09-11T03:39:11.166Z,1.00
2022-09-11T03:41:37.718Z,1.08
2022-09-11T03:44:04.234Z,1.00
2022-09-11T03:46:31.243Z,0.82
2022-09-11T03:48:57.701Z,1.17
2022-09-11T03:51:25.067Z,0.90
2022-09-11T03:53:51.525Z,0.65
2022-09-11T03:56:18.017Z,0.90
2022-09-11T03:58:44.554Z,0.98
2022-09-11T04:01:12.656Z,0.90
2022-09-11T04:03:39.853Z,0.80
2022-09-11T04:06:06.519Z,0.93
2022-09-11T04:08:35.675Z,0.90
2022-09-11T04:11:06.004Z,1.00
2022-09-11T04:13:33.474Z,1.08
2022-09-11T04:16:05.194Z,0.90
2022-09-11T04:18:32.690Z,1.00
2022-09-11T04:20:59.138Z,0.95
2022-09-11T04:23:25.626Z,1.20
2022-09-11T04:25:53.319Z,1.10
2022-09-11T04:28:19.899Z,1.05
2022-09-11T04:30:46.359Z,1.30
2022-09-11T04:33:12.850Z,1.20
2022-09-11T04:35:39.821Z,1.02
2022-09-11T04:38:06.874Z,1.13
2022-09-11T04:40:34.231Z,1.10
2022-09-11T04:43:01.211Z,0.90
2022-09-11T04:45:28.415Z,0.90
2022-09-11T04:47:55.182Z,1.20
2022-09-11T04:50:21.643Z,1.05
2022-09-11T04:52:48.072Z,0.95
2022-09-11T04:55:15.161Z,1.20
2022-09-11T04:57:41.629Z,1.20
2022-09-11T05:00:08.831Z,0.85
2022-09-11T05:02:36.311Z,0.90
2022-09-11T05:05:02.915Z,1.10
2022-09-11T05:07:29.927Z,1.08
2022-09-11T05:09:56.366Z,1.48
2022-09-11T05:12:22.939Z,1.10
2022-09-11T05:14:49.387Z,1.00
2022-09-11T05:17:15.835Z,1.10
2022-09-11T05:19:43.340Z,1.65
2022-09-11T05:22:09.813Z,1.23
2022-09-11T05:24:36.264Z,1.20
2022-09-11T05:27:02.709Z,1.48
2022-09-11T05:29:32.441Z,1.38
2022-09-11T05:31:59.394Z,1.10
2022-09-11T05:34:28.793Z,1.00
2022-09-11T05:36:57.503Z,1.35
2022-09-11T05:39:24.282Z,1.27
2022-09-11T05:41:51.726Z,1.13
2022-09-11T05:44:18.590Z,1.33
2022-09-11T05:46:45.429Z,1.05
2022-09-11T05:49:12.015Z,0.82
2022-09-11T05:51:40.327Z,1.00
2022-09-11T05:54:06.893Z,1.13
2022-09-11T05:56:33.442Z,1.08
2022-09-11T05:58:59.973Z,1.35
2022-09-11T06:01:27.567Z,1.20
2022-09-11T06:03:54.410Z,1.38
2022-09-11T06:06:22.134Z,1.30
2022-09-11T06:08:50.017Z,0.93
2022-09-11T06:11:17.478Z,0.95
2022-09-11T06:13:44.835Z,0.90
2022-09-11T06:16:17.295Z,1.00
2022-09-11T06:18:45.085Z,1.20
2022-09-11T06:21:12.480Z,1.17
2022-09-11T06:23:42.022Z,0.95
2022-09-11T06:26:12.476Z,0.93
2022-09-11T06:28:39.431Z,0.93
2022-09-11T06:31:07.117Z,1.10
2022-09-11T06:33:34.269Z,0.95
2022-09-11T06:36:01.516Z,1.00
2022-09-11T06:38:28.282Z,1.13
2022-09-11T06:40:54.746Z,0.90
2022-09-11T06:43:21.219Z,0.90
2022-09-11T06:45:48.471Z,1.17
2022-09-11T06:48:15.935Z,1.08
2022-09-11T06:50:42.469Z,1.17
2022-09-11T06:53:09.417Z,0.90
2022-09-11T06:55:36.167Z,1.40
2022-09-11T06:58:02.706Z,1.10
2022-09-11T07:00:29.207Z,1.17
2022-09-11T07:02:56.526Z,1.08
2022-09-11T07:05:23.383Z,1.10
2022-09-11T07:07:51.778Z,1.10
2022-09-11T07:10:18.311Z,1.20
2022-09-11T07:12:44.843Z,1.02
2022-09-11T07:15:11.412Z,1.55
2022-09-11T07:17:37.854Z,1.40
2022-09-11T07:20:05.206Z,1.50
2022-09-11T07:22:31.720Z,1.20
2022-09-11T07:24:58.643Z,1.17
2022-09-11T07:27:25.158Z,1.27
2022-09-11T07:29:51.698Z,1.10
2022-09-11T07:32:18.262Z,1.75
2022-09-11T07:34:47.579Z,1.17
2022-09-11T07:37:14.208Z,1.40
2022-09-11T07:39:40.754Z,1.70
2022-09-11T07:42:07.427Z,1.60
2022-09-11T07:44:34.384Z,1.80
2022-09-11T07:47:01.060Z,1.85
2022-09-11T07:49:27.828Z,1.70
2022-09-11T07:51:54.699Z,1.80
2022-09-11T07:54:21.851Z,1.85
2022-09-11T07:56:48.728Z,2.83
2022-09-11T07:59:15.247Z,2.08
2022-09-11T08:01:42.635Z,1.98
2022-09-11T08:04:11.243Z,1.80
2022-09-11T08:06:38.268Z,1.70
2022-09-11T08:09:06.192Z,2.08
2022-09-11T08:11:36.538Z,2.30
2022-09-11T08:14:03.087Z,2.20
2022-09-11T08:16:30.092Z,2.70
2022-09-11T08:18:57.112Z,2.70
2022-09-11T08:21:24.031Z,2.80
2022-09-11T08:23:50.488Z,3.42
2022-09-11T08:26:27.367Z,4.50
2022-09-11T08:28:55.418Z,4.47
2022-09-11T08:31:23.096Z,4.78
2022-09-11T08:33:49.599Z,3.45
2022-09-11T08:36:16.241Z,3.75
2022-09-11T08:38:43.784Z,3.78
2022-09-11T08:41:11.211Z,3.58
2022-09-11T08:43:44.623Z,3.63
2022-09-11T08:46:12.488Z,3.13
2022-09-11T08:48:59.410Z,3.72
2022-09-11T08:51:28.856Z,3.90
2022-09-11T08:53:57.014Z,3.75
2022-09-11T08:56:23.828Z,2.20
2022-09-11T08:59:12.361Z,2.53
2022-09-11T09:01:57.791Z,2.47
2022-09-11T09:04:43.546Z,2.90
2022-09-11T09:07:10.003Z,2.70
2022-09-11T09:09:46.114Z,2.55
2022-09-11T09:12:20.973Z,2.00
2022-09-11T09:14:56.879Z,2.30
2022-09-11T09:17:26.483Z,2.38
2022-09-11T09:19:58.178Z,2.78
2022-09-11T09:22:27.395Z,2.20
2022-09-11T09:25:00.352Z,1.95
2022-09-11T09:27:46.781Z,2.03
2022-09-11T09:30:27.643Z,1.95
2022-09-11T09:33:18.302Z,1.98
2022-09-11T09:35:45.286Z,1.95
2022-09-11T09:38:13.061Z,2.03
2022-09-11T09:40:45.099Z,2.30
2022-09-11T09:43:14.522Z,2.00
2022-09-11T09:45:41.038Z,2.10
2022-09-11T09:48:10.047Z,2.13
2022-09-11T09:50:39.380Z,1.33
2022-09-11T09:53:08.830Z,1.50
2022-09-11T09:55:36.091Z,1.75
2022-09-11T09:58:02.773Z,1.63
2022-09-11T10:00:32.661Z,1.30
2022-09-11T10:02:59.338Z,1.25
2022-09-11T10:05:33.219Z,1.40
2022-09-11T10:08:00.955Z,1.58
2022-09-11T10:10:27.500Z,1.30
2022-09-11T10:13:07.778Z,0.82
2022-09-11T10:15:43.364Z,1.17
2022-09-11T10:18:29.062Z,1.40
2022-09-11T10:21:14.159Z,1.05
2022-09-11T10:23:47.129Z,1.20
2022-09-11T10:26:25.710Z,0.93
2022-09-11T10:28:59.921Z,1.27
2022-09-11T10:31:26.788Z,1.20
2022-09-11T10:33:53.621Z,1.30
2022-09-11T10:36:24.410Z,1.30
2022-09-11T10:38:51.738Z,1.50
2022-09-11T10:41:23.266Z,1.38
2022-09-11T10:43:52.251Z,1.40
2022-09-11T10:46:41.405Z,1.35
2022-09-11T10:49:16.721Z,1.13
2022-09-11T10:51:56.247Z,1.23
2022-09-11T10:54:32.043Z,1.35
2022-09-11T10:57:16.716Z,1.00
2022-09-11T10:59:46.297Z,1.08
2022-09-11T11:02:20.861Z,1.30
2022-09-11T11:04:47.923Z,1.23
2022-09-11T11:07:17.795Z,1.30
2022-09-11T11:09:58.461Z,1.83
2022-09-11T11:12:31.812Z,1.02
2022-09-11T11:15:16.708Z,1.65
2022-09-11T11:17:43.249Z,1.63
2022-09-11T11:20:09.670Z,1.30
2022-09-11T11:22:54.534Z,1.38
2022-09-11T11:25:21.746Z,1.55
2022-09-11T11:27:49.267Z,1.45
2022-09-11T11:30:19.555Z,1.42
2022-09-11T11:32:48.809Z,1.17
2022-09-11T11:35:27.648Z,1.35
2022-09-11T11:37:59.205Z,1.38
2022-09-11T11:40:58.184Z,1.83
2022-09-11T11:43:28.049Z,1.10
2022-09-11T11:45:57.607Z,1.40
2022-09-11T11:48:30.306Z,2.00
2022-09-11T11:50:58.813Z,1.17
2022-09-11T11:53:32.911Z,1.60
2022-09-11T11:56:18.073Z,1.00
2022-09-11T11:58:51.849Z,1.23
2022-09-11T12:01:24.382Z,1.25
2022-09-11T12:03:56.842Z,1.40
2022-09-11T12:06:23.399Z,1.48
2022-09-11T12:08:50.078Z,1.55
2022-09-11T12:11:18.595Z,1.38
2022-09-11T12:13:46.721Z,1.40
2022-09-11T12:16:34.867Z,1.70
2022-09-11T12:19:14.219Z,1.30
2022-09-11T12:21:42.401Z,1.17
2022-09-11T12:24:08.927Z,1.20
2022-09-11T12:26:35.464Z,1.20
2022-09-11T12:29:19.267Z,1.25
2022-09-11T12:31:49.379Z,0.90
2022-09-11T12:36:59.903Z,1.30
2022-09-11T12:39:29.862Z,1.00
2022-09-11T12:42:26.021Z,1.45
2022-09-11T12:44:52.491Z,1.63
2022-09-11T12:47:36.868Z,1.40
2022-09-11T12:50:06.073Z,1.60
2022-09-11T12:52:44.786Z,1.33
2022-09-11T12:55:30.442Z,1.60
2022-09-11T12:58:02.573Z,1.70
2022-09-11T13:00:43.304Z,1.60
2022-09-11T13:03:24.848Z,1.33
2022-09-11T13:05:56.943Z,1.38
2022-09-11T13:08:24.627Z,2.03
2022-09-11T13:10:51.187Z,1.65
2022-09-11T13:13:35.794Z,1.20
2022-09-11T13:16:21.130Z,2.10
2022-09-11T13:18:48.212Z,1.65
2022-09-11T13:21:17.395Z,1.48
2022-09-11T13:23:44.633Z,1.50
2022-09-11T13:26:19.037Z,1.83
2022-09-11T13:28:47.005Z,2.42
2022-09-11T13:31:25.804Z,1.83
2022-09-11T13:33:53.056Z,1.23
2022-09-11T13:36:21.538Z,1.48
2022-09-11T13:38:50.038Z,1.10
2022-09-11T13:41:19.079Z,1.35
2022-09-11T13:43:50.734Z,1.55
2022-09-11T13:46:17.237Z,1.63
2022-09-11T13:48:45.081Z,1.63
2022-09-11T13:51:16.554Z,1.50
2022-09-11T13:53:45.414Z,1.65
2022-09-11T13:56:37.291Z,1.73
2022-09-11T13:59:29.770Z,1.42
2022-09-11T14:02:00.951Z,1.60
2022-09-11T14:04:29.015Z,1.88
2022-09-11T14:06:56.073Z,1.70
2022-09-11T14:09:23.058Z,2.55
2022-09-11T14:11:49.842Z,2.40
2022-09-11T14:14:22.490Z,1.50
2022-09-11T14:16:53.159Z,2.22
2022-09-11T14:19:21.528Z,1.77
2022-09-11T14:21:49.395Z,2.30
2022-09-11T14:24:26.408Z,1.98
2022-09-11T14:26:53.028Z,1.80
2022-09-11T14:29:31.489Z,2.15
2022-09-11T14:32:16.920Z,1.95
2022-09-11T14:34:44.234Z,1.63
2022-09-11T14:37:16.244Z,1.50
2022-09-11T14:39:44.827Z,1.98
2022-09-11T14:42:16.323Z,1.63
2022-09-11T14:44:43.308Z,2.03
2022-09-11T14:47:15.679Z,2.70
2022-09-11T14:49:42.235Z,1.65
2022-09-11T14:52:13.508Z,1.40
2022-09-11T14:54:40.139Z,1.42
2022-09-11T14:57:18.497Z,1.70
2022-09-11T14:59:47.060Z,2.28
2022-09-11T15:02:16.102Z,1.80
2022-09-11T15:04:42.649Z,1.88
2022-09-11T15:07:10.436Z,1.35
2022-09-11T15:09:38.295Z,1.80
2022-09-11T15:12:05.271Z,1.50
2022-09-11T15:14:54.811Z,1.70
2022-09-11T15:17:20.375Z,1.77
2022-09-11T15:19:47.813Z,1.73
2022-09-11T15:22:14.350Z,1.95
2022-09-11T15:24:41.786Z,1.60
2022-09-11T15:27:08.736Z,2.67
2022-09-11T15:29:35.245Z,1.80
2022-09-11T15:32:03.237Z,1.42
2022-09-11T15:34:33.444Z,2.17
2022-09-11T15:37:00.413Z,1.60
2022-09-11T15:39:27.980Z,1.77
2022-09-11T15:41:55.476Z,1.55
2022-09-11T15:44:26.026Z,2.08
2022-09-11T15:46:53.372Z,1.73
2022-09-11T15:49:24.287Z,2.17
2022-09-11T15:51:51.709Z,1.70
2022-09-11T15:54:18.748Z,2.30
2022-09-11T15:56:46.942Z,2.05
2022-09-11T15:59:15.404Z,1.88
2022-09-11T16:01:42.484Z,2.20
2022-09-11T16:04:10.453Z,1.90
2022-09-11T16:06:42.167Z,2.30
2022-09-11T16:09:15.818Z,1.55
2022-09-11T16:11:43.290Z,1.73
2022-09-11T16:14:17.710Z,1.90
2022-09-11T16:16:47.172Z,2.28
2022-09-11T16:19:14.544Z,1.73
2022-09-11T16:21:41.199Z,1.80
2022-09-11T16:24:08.020Z,2.00
2022-09-11T16:26:35.326Z,1.70
2022-09-11T16:29:02.259Z,2.17
2022-09-11T16:31:28.768Z,2.92
2022-09-11T16:33:56.975Z,3.83
2022-09-11T16:36:23.647Z,1.98
2022-09-11T16:38:50.371Z,2.03
2022-09-11T16:41:18.932Z,1.95
2022-09-11T16:43:46.668Z,2.80
2022-09-11T16:46:18.094Z,2.67
2022-09-11T16:48:45.368Z,3.47
2022-09-11T16:51:12.632Z,40.50
2022-09-11T16:53:39.499Z,17.33
2022-09-11T16:56:07.823Z,26.63
2022-09-11T16:58:34.948Z,6.15
2022-09-11T17:01:08.577Z,3.92
2022-09-11T17:03:40.777Z,11.68
2022-09-11T17:06:08.144Z,12.00
2022-09-11T17:08:35.030Z,5.43
2022-09-11T17:11:04.798Z,9.95
2022-09-11T17:13:31.607Z,6.90
2022-09-11T17:16:02.334Z,3.75
2022-09-11T17:18:29.207Z,4.38
2022-09-11T17:20:57.246Z,3.58
2022-09-11T17:23:24.420Z,4.07
2022-09-11T17:25:51.163Z,3.65
2022-09-11T17:28:20.000Z,8.00
2022-09-11T17:30:46.547Z,7.65
2022-09-11T17:33:14.523Z,14.35
2022-09-11T17:35:41.839Z,10.23
2022-09-11T17:38:09.519Z,9.77
2022-09-11T17:40:36.522Z,15.07
2022-09-11T17:43:03.054Z,5.70
2022-09-11T17:45:30.890Z,6.47
2022-09-11T17:47:57.746Z,5.53
2022-09-11T17:50:24.411Z,4.60
2022-09-11T17:52:50.877Z,5.97
2022-09-11T17:55:17.410Z,5.47
2022-09-11T17:57:45.562Z,5.03
2022-09-11T18:00:13.059Z,3.72
2022-09-11T18:02:40.077Z,4.18
2022-09-11T18:05:07.510Z,5.95
2022-09-11T18:07:33.978Z,4.03
2022-09-11T18:10:00.527Z,9.95
2022-09-11T18:12:28.374Z,5.38
2022-09-11T18:14:57.102Z,8.18
2022-09-11T18:17:23.598Z,6.65
2022-09-11T18:19:50.271Z,14.20
2022-09-11T18:22:19.901Z,9.45
2022-09-11T18:24:46.547Z,7.38
2022-09-11T18:27:13.184Z,6.68
2022-09-11T18:29:40.731Z,7.05
2022-09-11T18:32:07.777Z,5.20
2022-09-11T18:34:34.334Z,6.40
2022-09-11T18:37:01.040Z,5.45
2022-09-11T18:39:27.572Z,4.28
2022-09-11T18:41:54.071Z,5.65
2022-09-11T18:44:21.287Z,5.38
2022-09-11T18:46:52.078Z,5.30
2022-09-11T18:49:18.650Z,4.68
2022-09-11T18:51:52.838Z,5.63
2022-09-11T18:54:21.070Z,6.30
2022-09-11T18:56:49.234Z,4.90
2022-09-11T18:59:16.637Z,5.45
2022-09-11T19:01:43.329Z,6.22
2022-09-11T19:04:11.032Z,6.32
2022-09-11T19:06:41.994Z,6.50
2022-09-11T19:09:10.433Z,4.85
2022-09-11T19:11:37.583Z,7.05
2022-09-11T19:14:06.178Z,6.38
2022-09-11T19:16:32.891Z,6.05
2022-09-11T19:19:00.234Z,5.50
2022-09-11T19:21:27.613Z,5.80
2022-09-11T19:23:55.994Z,4.57
2022-09-11T19:26:23.895Z,7.18
2022-09-11T19:28:50.681Z,6.45
2022-09-11T19:31:21.225Z,6.32
2022-09-11T19:33:48.054Z,6.10
2022-09-11T19:36:17.670Z,5.97
2022-09-11T19:38:45.174Z,6.13
2022-09-11T19:41:12.967Z,6.40
2022-09-11T19:43:40.113Z,6.45
2022-09-11T19:46:09.456Z,48.40
2022-09-11T19:48:39.396Z,21.02
2022-09-11T19:51:09.062Z,110.45
2022-09-11T19:53:36.087Z,88.47
2022-09-11T19:56:03.182Z,30.15
2022-09-11T19:58:29.775Z,65.85
2022-09-11T20:00:56.592Z,138.38
2022-09-11T20:03:23.168Z,160.93
2022-09-11T20:05:49.978Z,103.53
2022-09-11T20:08:17.382Z,55.90
2022-09-11T20:10:45.590Z,26.95
2022-09-11T20:13:12.199Z,24.15
2022-09-11T20:15:39.465Z,18.52
2022-09-11T20:18:07.917Z,10.95
2022-09-11T20:20:35.702Z,8.38
2022-09-11T20:23:02.837Z,9.48
2022-09-11T20:25:29.447Z,8.50
2022-09-11T20:27:56.001Z,13.35
2022-09-11T20:30:25.177Z,9.82
2022-09-11T20:32:52.050Z,7.65
2022-09-11T20:35:18.689Z,12.23
2022-09-11T20:37:45.291Z,6.97
2022-09-11T20:40:11.973Z,5.63
2022-09-11T20:42:39.782Z,5.65
2022-09-11T20:45:06.544Z,6.88
2022-09-11T20:47:34.303Z,5.28
2022-09-11T20:50:00.867Z,5.22
2022-09-11T20:52:27.463Z,5.93
2022-09-11T20:54:54.471Z,5.28
2022-09-11T20:57:20.962Z,5.78
2022-09-11T20:59:47.716Z,6.28
2022-09-11T21:02:14.820Z,4.95
2022-09-11T21:04:41.457Z,4.75
2022-09-11T21:07:07.935Z,4.60
2022-09-11T21:09:34.482Z,5.07
2022-09-11T21:12:00.962Z,5.07
2022-09-11T21:14:27.472Z,5.72
2022-09-11T21:16:53.967Z,7.03
2022-09-11T21:19:20.492Z,5.70
2022-09-11T21:21:46.935Z,6.40
2022-09-11T21:24:13.822Z,6.38
2022-09-11T21:26:40.878Z,4.40
2022-09-11T21:29:08.836Z,3.83
2022-09-11T21:31:35.707Z,4.10
2022-09-11T21:34:02.268Z,3.35
2022-09-11T21:36:28.848Z,2.85
2022-09-11T21:38:55.957Z,2.75
2022-09-11T21:41:25.585Z,2.28
2022-09-11T21:43:52.102Z,2.03
2022-09-11T21:46:18.657Z,2.20
2022-09-11T21:48:45.170Z,1.80
2022-09-11T21:51:12.962Z,1.85
2022-09-11T21:53:40.306Z,1.70
2022-09-11T21:56:07.831Z,1.75
2022-09-11T21:58:34.271Z,1.48
2022-09-11T22:01:08.047Z,2.17
2022-09-11T22:03:34.757Z,1.60
2022-09-11T22:06:05.194Z,1.98
2022-09-11T22:08:31.666Z,1.73
2022-09-11T22:11:00.555Z,2.30
2022-09-11T22:13:27.033Z,2.20
2022-09-11T22:15:53.587Z,2.92
2022-09-11T22:18:20.171Z,3.70
2022-09-11T22:20:46.852Z,3.05
2022-09-11T22:23:14.901Z,3.03
2022-09-11T22:25:41.430Z,3.22
2022-09-11T22:28:08.263Z,2.58
2022-09-11T22:30:34.762Z,2.42
2022-09-11T22:33:01.324Z,3.38
2022-09-11T22:35:28.829Z,2.88
2022-09-11T22:37:55.356Z,2.83
2022-09-11T22:40:21.848Z,2.80
2022-09-11T22:42:48.438Z,3.17
2022-09-11T22:45:14.936Z,2.90
2022-09-11T22:47:41.427Z,4.15
2022-09-11T22:50:08.107Z,3.17
2022-09-11T22:52:34.625Z,3.00
2022-09-11T22:55:01.201Z,3.33
2022-09-11T22:57:29.190Z,3.03
2022-09-11T22:59:57.214Z,2.97
2022-09-11T23:02:27.554Z,3.38
2022-09-11T23:05:12.653Z,3.50
2022-09-11T23:07:39.313Z,5.53
2022-09-11T23:10:06.215Z,3.08
2022-09-11T23:12:32.783Z,3.00
2022-09-11T23:14:59.254Z,3.28
2022-09-11T23:17:26.837Z,2.85
2022-09-11T23:19:53.670Z,3.00
2022-09-11T23:22:21.240Z,2.63
2022-09-11T23:24:47.772Z,2.63
2022-09-11T23:27:14.318Z,2.60
2022-09-11T23:29:40.784Z,2.83
2022-09-11T23:32:07.620Z,3.40
2022-09-11T23:34:34.166Z,4.28
2022-09-11T23:37:00.633Z,3.30
2022-09-11T23:39:27.151Z,4.50
2022-09-11T23:41:53.683Z,4.22
2022-09-11T23:44:20.208Z,5.03
2022-09-11T23:46:46.700Z,4.40
2022-09-11T23:49:13.341Z,3.78
2022-09-11T23:51:39.867Z,4.70
2022-09-11T23:54:06.367Z,3.70
2022-09-11T23:56:33.003Z,3.50
2022-09-11T23:58:59.548Z,2.95
